Time;durP1;ratioP1;P1;durP2;ratioP2;P2;SDS_P1;SDS_P2;PMS_P1;PMS_P2;Temp;Humidity;BMP_temperature;BMP_pressure;BME280_temperature;BME280_humidity;BME280_pressure;Samples;Min_cycle;Max_cycle;Signal;HPM_P1;HPM_P2
2023/08/14 00:02:23;;;;;;;4.50;2.90;;;;;;;15.05;100.00;101467.80;106000;1256;64685;-48
2023/08/14 00:04:50;;;;;;;8.50;3.60;;;;;;;15.03;100.00;101473.55;105792;1257;72913;-49
2023/08/14 00:07:17;;;;;;;8.50;3.60;;;;;;;15.02;100.00;101474.11;105911;1255;61967;-49
2023/08/14 00:09:44;;;;;;;6.40;3.00;;;;;;;15.00;100.00;101475.19;105977;1251;60150;-48
2023/08/14 00:12:11;;;;;;;5.60;3.00;;;;;;;15.00;100.00;101471.89;105924;1251;72862;-48
2023/08/14 00:14:38;;;;;;;8.50;2.80;;;;;;;15.00;100.00;101475.18;105989;1255;65659;-48
2023/08/14 00:17:05;;;;;;;6.80;3.10;;;;;;;15.00;100.00;101474.66;105992;1251;72511;-47
2023/08/14 00:19:32;;;;;;;6.30;3.00;;;;;;;15.00;100.00;101474.84;105907;1256;61824;-48
2023/08/14 00:21:59;;;;;;;4.50;3.10;;;;;;;14.99;100.00;101476.25;105931;1251;60373;-48
2023/08/14 00:24:26;;;;;;;11.10;3.20;;;;;;;14.96;100.00;101475.27;105907;1257;73009;-48
2023/08/14 00:26:53;;;;;;;7.80;3.20;;;;;;;14.95;100.00;101473.54;105859;1256;64702;-48
2023/08/14 00:29:20;;;;;;;8.00;3.10;;;;;;;14.93;100.00;101472.90;105941;1256;72509;-48
2023/08/14 00:31:47;;;;;;;4.60;3.10;;;;;;;14.91;100.00;101474.34;105928;1256;61936;-48
2023/08/14 00:34:14;;;;;;;12.00;3.80;;;;;;;14.90;100.00;101473.13;105930;1254;60272;-48
2023/08/14 00:36:41;;;;;;;6.30;2.90;;;;;;;14.90;100.00;101474.17;105879;1257;73018;-48
2023/08/14 00:39:07;;;;;;;9.00;3.40;;;;;;;14.92;100.00;101471.88;105883;1257;64756;-48
2023/08/14 00:41:36;;;;;;;3.40;2.90;;;;;;;14.92;100.00;101470.83;105824;1257;72538;-48
2023/08/14 00:44:03;;;;;;;6.50;3.40;;;;;;;14.92;100.00;101471.52;105941;1257;60810;-49
2023/08/14 00:46:30;;;;;;;7.30;3.20;;;;;;;14.91;100.00;101468.08;106001;1253;60310;-49
2023/08/14 00:48:58;;;;;;;3.00;2.70;;;;;;;14.90;100.00;101468.95;105964;1257;72980;-48
2023/08/14 00:51:25;;;;;;;5.30;3.90;;;;;;;14.90;100.00;101463.56;105908;1257;64599;-47
2023/08/14 00:53:52;;;;;;;7.90;3.70;;;;;;;14.90;100.00;101467.39;105856;1257;72653;-48
2023/08/14 00:56:19;;;;;;;4.60;2.70;;;;;;;14.89;100.00;101467.75;105850;1260;61918;-49
2023/08/14 00:58:49;;;;;;;10.10;3.10;;;;;;;14.87;100.00;101467.11;105890;1251;60188;-48
2023/08/14 01:01:17;;;;;;;8.40;2.80;;;;;;;14.83;100.00;101463.02;105884;1260;73496;-48
2023/08/14 01:03:44;;;;;;;8.00;3.00;;;;;;;14.78;100.00;101463.81;106005;1256;64626;-48
2023/08/14 01:06:11;;;;;;;10.10;2.90;;;;;;;14.73;100.00;101467.02;105960;1255;72710;-47
2023/08/14 01:08:38;;;;;;;4.60;2.70;;;;;;;14.69;100.00;101468.65;105954;1257;61998;-48
2023/08/14 01:11:28;;;;;;;4.60;2.60;;;;;;;14.64;100.00;101469.42;105873;1251;60263;-48
2023/08/14 01:14:08;;;;;;;5.50;2.50;;;;;;;14.63;100.00;101468.40;105836;1252;73216;-49
2023/08/14 01:16:38;;;;;;;5.30;2.80;;;;;;;14.62;100.00;101469.47;105987;1255;65487;-48
2023/08/14 01:19:09;;;;;;;3.10;2.80;;;;;;;14.62;100.00;101470.52;105893;1251;72727;-48
2023/08/14 01:21:45;;;;;;;9.80;3.00;;;;;;;14.61;100.00;101474.35;105988;1258;61900;-48
2023/08/14 01:24:31;;;;;;;6.80;2.50;;;;;;;14.59;100.00;101473.35;105785;1252;60511;-48
2023/08/14 01:26:58;;;;;;;6.70;2.90;;;;;;;14.57;100.00;101478.26;105910;1256;73858;-49
2023/08/14 01:29:25;;;;;;;4.80;2.80;;;;;;;14.56;100.00;101475.33;105809;1259;64686;-49
2023/08/14 01:31:52;;;;;;;5.50;2.60;;;;;;;14.55;100.00;101476.04;105848;1254;72501;-49
2023/08/14 01:34:19;;;;;;;11.20;2.00;;;;;;;14.54;100.00;101479.18;105865;1256;61965;-49
2023/08/14 01:36:53;;;;;;;3.30;2.60;;;;;;;14.53;100.00;101478.69;105831;1251;60534;-49
2023/08/14 01:39:21;;;;;;;5.30;2.50;;;;;;;14.52;100.00;101477.65;106042;1254;72419;-49
2023/08/14 01:41:59;;;;;;;12.50;2.90;;;;;;;14.50;100.00;101478.37;106009;1252;63261;-50
2023/08/14 01:44:26;;;;;;;2.50;2.30;;;;;;;14.49;100.00;101480.30;105951;1257;72602;-50
2023/08/14 01:46:53;;;;;;;4.60;2.30;;;;;;;14.46;100.00;101481.41;105667;1260;61931;-49
2023/08/14 01:49:20;;;;;;;4.50;2.50;;;;;;;14.42;100.00;101482.02;105991;1256;60539;-51
2023/08/14 01:51:47;;;;;;;5.00;2.40;;;;;;;14.39;100.00;101482.05;106026;1257;73834;-50
2023/08/14 01:54:14;;;;;;;7.90;2.60;;;;;;;14.35;100.00;101480.72;105727;1259;64446;-51
2023/08/14 01:56:42;;;;;;;2.30;2.10;;;;;;;14.32;100.00;101479.22;106042;1256;72625;-50
2023/08/14 01:59:09;;;;;;;6.90;2.80;;;;;;;14.28;100.00;101482.06;105866;1260;60407;-51
2023/08/14 02:01:36;;;;;;;7.10;3.40;;;;;;;14.25;100.00;101481.09;105922;1252;60574;-49
2023/08/14 02:04:06;;;;;;;8.30;2.60;;;;;;;14.23;100.00;101483.89;105778;1252;73780;-50
2023/08/14 02:06:33;;;;;;;3.00;2.60;;;;;;;14.20;100.00;101484.64;105788;1259;65074;-49
2023/08/14 02:09:01;;;;;;;8.60;2.70;;;;;;;14.18;100.00;101484.16;105834;1257;72681;-49
2023/08/14 02:11:28;;;;;;;6.40;2.10;;;;;;;14.16;100.00;101484.20;105694;1257;61960;-49
2023/08/14 02:13:55;;;;;;;5.50;2.60;;;;;;;14.12;100.00;101486.69;105887;1259;60444;-49
2023/08/14 02:16:22;;;;;;;6.20;2.60;;;;;;;14.10;100.00;101485.17;105885;1257;73887;-48
2023/08/14 02:18:49;;;;;;;3.30;2.80;;;;;;;14.07;100.00;101490.41;105950;1254;64680;-49
2023/08/14 02:21:16;;;;;;;2.80;2.40;;;;;;;14.07;100.00;101490.08;105999;1258;72590;-49
2023/08/14 02:23:43;;;;;;;6.50;3.20;;;;;;;14.06;100.00;101490.95;105817;1257;61944;-50
2023/08/14 02:26:10;;;;;;;3.30;2.80;;;;;;;14.05;100.00;101487.67;105880;1256;60598;-49
2023/08/14 02:28:36;;;;;;;11.10;2.80;;;;;;;14.05;100.00;101488.38;105959;1254;73923;-49
2023/08/14 02:31:04;;;;;;;4.40;2.50;;;;;;;14.04;100.00;101492.73;105958;1255;65157;-49
2023/08/14 02:33:34;;;;;;;4.20;2.90;;;;;;;14.03;100.00;101492.56;105945;1251;72668;-55
2023/08/14 02:36:01;;;;;;;10.00;2.30;;;;;;;14.02;100.00;101491.71;105787;1251;61843;-49
2023/08/14 02:38:30;;;;;;;6.40;2.50;;;;;;;14.03;100.00;101496.55;105950;1251;60405;-48
2023/08/14 02:40:57;;;;;;;6.10;2.60;;;;;;;14.05;100.00;101495.14;105976;1257;72858;-51
2023/08/14 02:43:24;;;;;;;7.40;2.50;;;;;;;14.07;100.00;101495.80;105923;1251;64774;-48
2023/08/14 02:45:52;;;;;;;9.00;2.70;;;;;;;14.07;100.00;101495.27;106036;1257;72627;-48
2023/08/14 02:48:19;;;;;;;5.40;2.40;;;;;;;14.10;100.00;101496.96;105972;1253;62413;-48
2023/08/14 02:50:46;;;;;;;5.80;2.40;;;;;;;14.13;100.00;101494.48;105983;1251;60443;-47
2023/08/14 02:53:13;;;;;;;5.90;2.30;;;;;;;14.15;100.00;101495.32;105890;1252;72815;-47
2023/08/14 02:55:39;;;;;;;5.60;2.60;;;;;;;14.17;100.00;101503.95;105932;1257;64683;-48
2023/08/14 02:58:06;;;;;;;4.30;2.20;;;;;;;14.19;100.00;101503.06;105854;1257;72535;-47
2023/08/14 03:00:33;;;;;;;5.80;2.60;;;;;;;14.19;100.00;101505.66;105867;1257;62004;-49
2023/08/14 03:03:02;;;;;;;6.10;2.30;;;;;;;14.19;100.00;101504.09;105925;1256;60440;-48
2023/08/14 03:05:29;;;;;;;4.30;2.30;;;;;;;14.21;100.00;101505.63;105913;1250;73755;-48
2023/08/14 03:07:56;;;;;;;8.00;2.80;;;;;;;14.24;100.00;101505.23;106026;1256;65455;-48
2023/08/14 03:10:25;;;;;;;2.90;2.70;;;;;;;14.29;100.00;101508.09;105853;1256;72589;-48
2023/08/14 03:12:52;;;;;;;4.10;2.50;;;;;;;14.33;100.00;101507.16;105935;1257;61991;-49
2023/08/14 03:15:19;;;;;;;4.40;3.00;;;;;;;14.38;100.00;101506.55;105901;1252;60594;-49
2023/08/14 03:17:46;;;;;;;4.90;2.40;;;;;;;14.44;100.00;101504.71;105951;1256;73846;-49
2023/08/14 03:20:14;;;;;;;7.60;2.70;;;;;;;14.52;100.00;101510.48;105846;1257;64631;-49
2023/08/14 03:22:41;;;;;;;7.40;2.80;;;;;;;14.59;100.00;101511.73;105899;1257;71326;-48
2023/08/14 03:25:08;;;;;;;4.80;2.70;;;;;;;14.67;100.00;101512.98;105931;1255;61857;-49
2023/08/14 03:27:36;;;;;;;5.10;2.70;;;;;;;14.76;100.00;101513.55;105932;1256;60412;-48
2023/08/14 03:30:04;;;;;;;7.00;2.40;;;;;;;14.86;100.00;101509.00;105963;1257;73617;-49
2023/08/14 03:32:32;;;;;;;3.40;2.10;;;;;;;14.95;100.00;101511.09;105913;1260;64141;-48
2023/08/14 03:35:00;;;;;;;9.40;2.50;;;;;;;15.01;100.00;101510.44;105969;1251;72596;-48
2023/08/14 03:37:27;;;;;;;4.40;2.20;;;;;;;15.06;100.00;101512.62;105956;1257;61963;-48
2023/08/14 03:39:54;;;;;;;9.10;2.40;;;;;;;15.13;100.00;101507.77;105950;1251;60457;-49
2023/08/14 03:42:21;;;;;;;2.50;2.10;;;;;;;15.23;100.00;101508.06;105963;1255;73708;-49
2023/08/14 03:44:48;;;;;;;5.60;2.50;;;;;;;15.33;100.00;101511.02;106036;1254;63688;-48
2023/08/14 03:47:18;;;;;;;4.40;2.50;;;;;;;15.42;100.00;101510.14;105950;1251;72592;-49
2023/08/14 03:49:44;;;;;;;3.30;2.30;;;;;;;15.50;100.00;101506.29;106007;1257;61994;-49
2023/08/14 03:52:11;;;;;;;2.20;2.00;;;;;;;15.61;100.00;101512.48;105867;1251;60613;-49
2023/08/14 03:54:39;;;;;;;7.60;2.10;;;;;;;15.76;100.00;101510.42;105995;1257;73926;-48
2023/08/14 03:57:06;;;;;;;3.20;2.00;;;;;;;15.95;100.00;101514.52;105874;1257;64533;-48
2023/08/14 03:59:33;;;;;;;3.70;2.10;;;;;;;16.19;100.00;101513.92;105978;1251;72591;-49
2023/08/14 04:02:00;;;;;;;3.80;2.20;;;;;;;16.50;100.00;101506.69;105940;1255;62100;-49
2023/08/14 04:04:28;;;;;;;6.00;2.40;;;;;;;16.89;100.00;101503.38;105956;1251;60470;-49
2023/08/14 04:06:55;;;;;;;2.30;2.00;;;;;;;17.30;100.00;101503.09;105919;1256;73682;-49
2023/08/14 04:09:22;;;;;;;8.70;2.20;;;;;;;17.70;100.00;101501.19;105974;1257;64717;-50
2023/08/14 04:11:49;;;;;;;5.40;2.60;;;;;;;18.11;100.00;101503.70;105932;1251;72691;-49
2023/08/14 04:14:16;;;;;;;6.90;2.80;;;;;;;18.54;100.00;101504.52;105886;1254;60397;-48
2023/08/14 04:16:44;;;;;;;3.40;2.00;;;;;;;18.99;100.00;101505.39;105857;1254;60463;-49
2023/08/14 04:19:18;;;;;;;8.70;2.60;;;;;;;19.47;100.00;101510.06;105885;1254;73706;-49
2023/08/14 04:21:46;;;;;;;3.90;2.20;;;;;;;19.96;100.00;101517.92;105943;1257;64447;-49
2023/08/14 04:24:13;;;;;;;11.90;2.30;;;;;;;20.39;100.00;101529.30;105913;1251;72693;-49
2023/08/14 04:26:40;;;;;;;4.30;2.20;;;;;;;20.83;100.00;101541.98;105994;1257;60505;-49
2023/08/14 04:29:09;;;;;;;3.90;2.00;;;;;;;21.30;100.00;101559.52;105891;1254;60418;-50
2023/08/14 04:31:36;;;;;;;5.50;2.00;;;;;;;21.74;100.00;101588.38;105929;1256;73859;-50
2023/08/14 04:34:04;;;;;;;4.80;2.40;;;;;;;22.19;100.00;101638.45;105874;1254;64395;-50
2023/08/14 04:36:34;;;;;;;7.00;2.30;;;;;;;22.62;100.00;101718.70;105886;1254;72649;-50
2023/08/14 04:39:07;;;;;;;3.80;1.90;;;;;;;23.01;100.00;101848.05;105863;1254;60430;-50
2023/08/14 04:41:34;;;;;;;6.00;2.30;;;;;;;23.31;100.00;102019.49;105925;1254;60444;-48
2023/08/14 04:44:01;;;;;;;3.10;2.00;;;;;;;23.54;100.00;102071.09;105936;1255;73674;-48
2023/08/14 04:46:30;;;;;;;7.20;2.40;;;;;;;23.63;100.00;101779.77;105905;1260;63537;-49
2023/08/14 04:49:08;;;;;;;8.10;2.20;;;;;;;23.64;100.00;101288.41;105945;1251;72752;-49
2023/08/14 04:51:36;;;;;;;6.20;2.10;;;;;;;23.65;100.00;101045.15;105961;1255;60331;-48
2023/08/14 04:54:03;;;;;;;5.70;2.00;;;;;;;23.61;100.00;100944.58;105863;1257;60291;-49
2023/08/14 04:56:31;;;;;;;4.70;2.20;;;;;;;23.61;100.00;100945.31;105897;1257;73807;-48
2023/08/14 04:58:57;;;;;;;3.90;2.10;;;;;;;23.67;100.00;100959.90;105969;1251;64551;-51
2023/08/14 05:01:25;;;;;;;3.40;1.90;;;;;;;23.79;100.00;100985.86;105962;1251;72929;-49
2023/08/14 05:03:55;;;;;;;6.60;1.90;;;;;;;23.93;100.00;101024.13;105960;1256;60431;-49
2023/08/14 05:06:22;;;;;;;4.40;2.20;;;;;;;24.06;100.00;101059.90;106025;1253;60434;-49
2023/08/14 05:08:49;;;;;;;6.60;2.00;;;;;;;24.25;100.00;101089.04;105948;1256;73846;-49
2023/08/14 05:11:16;;;;;;;3.60;2.50;;;;;;;24.33;100.00;101140.50;105968;1255;64601;-50
2023/08/14 05:13:44;;;;;;;5.40;1.90;;;;;;;24.40;100.00;101187.34;105807;1256;72594;-51
2023/08/14 05:16:12;;;;;;;5.40;1.60;;;;;;;24.44;100.00;101229.39;105967;1257;60428;-49
2023/08/14 05:18:39;;;;;;;4.00;2.10;;;;;;;24.52;100.00;101239.79;106031;1251;60417;-50
2023/08/14 05:21:06;;;;;;;2.90;1.90;;;;;;;24.73;100.00;101244.85;105971;1251;73769;-50
2023/08/14 05:23:33;;;;;;;7.10;2.20;;;;;;;24.81;100.00;101267.56;105891;1257;64766;-48
2023/08/14 05:26:00;;;;;;;4.90;2.40;;;;;;;24.78;100.00;101283.66;105848;1254;72697;-49
2023/08/14 05:28:26;;;;;;;2.50;2.20;;;;;;;24.71;100.00;101292.42;105880;1256;60812;-49
2023/08/14 05:30:54;;;;;;;3.80;2.30;;;;;;;24.59;100.00;101309.89;105972;1251;60600;-49
2023/08/14 05:33:21;;;;;;;8.30;2.00;;;;;;;24.41;100.00;101330.08;105938;1256;73941;-49
2023/08/14 05:35:49;;;;;;;4.30;2.30;;;;;;;24.26;100.00;101337.05;105924;1255;64419;-50
2023/08/14 05:38:16;;;;;;;6.00;2.50;;;;;;;24.06;100.00;101342.11;105981;1251;72585;-49
2023/08/14 05:40:43;;;;;;;4.00;2.50;;;;;;;23.78;100.00;101357.52;105952;1257;60491;-49
2023/08/14 05:43:11;;;;;;;4.20;2.20;;;;;;;23.55;100.00;101350.23;105958;1251;60533;-48
2023/08/14 05:45:41;;;;;;;2.50;2.10;;;;;;;23.38;100.00;101334.17;105960;1251;73804;-49
2023/08/14 05:48:08;;;;;;;4.60;2.40;;;;;;;23.17;100.00;101326.52;105959;1256;63357;-49
2023/08/14 05:50:35;;;;;;;12.40;2.20;;;;;;;23.05;100.00;101312.83;105981;1251;72561;-49
2023/08/14 05:53:06;;;;;;;3.20;2.10;;;;;;;23.02;100.00;101286.80;105950;1257;61775;-49
2023/08/14 05:55:38;;;;;;;9.30;2.30;;;;;;;23.04;100.00;101271.67;106002;1256;61098;-49
2023/08/14 05:58:06;;;;;;;8.90;2.50;;;;;;;23.07;100.00;101271.35;105996;1256;73039;-53
2023/08/14 06:00:36;;;;;;;5.40;2.70;;;;;;;23.14;100.00;101276.55;106050;1255;64550;-51
2023/08/14 06:03:04;;;;;;;10.90;3.10;;;;;;;23.24;100.00;101281.27;105972;1251;72543;-54
2023/08/14 06:05:31;;;;;;;8.10;2.20;;;;;;;23.33;100.00;101280.20;105955;1257;61091;-49
2023/08/14 06:08:01;;;;;;;5.00;2.60;;;;;;;23.37;100.00;101300.42;105937;1251;60555;-52
2023/08/14 06:10:29;;;;;;;9.30;2.30;;;;;;;23.38;100.00;101313.41;105971;1251;73958;-52
2023/08/14 06:12:56;;;;;;;4.60;2.30;;;;;;;23.37;100.00;101331.23;105990;1251;65609;-51
2023/08/14 06:15:24;;;;;;;13.40;2.60;;;;;;;23.37;100.00;101342.18;105977;1251;72654;-49
2023/08/14 06:17:52;;;;;;;7.10;2.40;;;;;;;23.36;100.00;101348.35;105973;1256;60351;-49
2023/08/14 06:20:20;;;;;;;8.50;2.30;;;;;;;23.37;100.00;101354.80;105966;1251;60433;-49
2023/08/14 06:22:47;;;;;;;3.10;2.20;;;;;;;23.39;100.00;101363.50;105965;1251;73723;-49
2023/08/14 06:25:15;;;;;;;6.60;2.10;;;;;;;23.41;100.00;101367.44;105961;1257;64547;-49
2023/08/14 06:27:42;;;;;;;3.70;2.30;;;;;;;23.44;100.00;101370.63;105944;1256;71375;-49
2023/08/14 06:30:09;;;;;;;5.50;2.70;;;;;;;23.46;100.00;101375.42;105983;1256;60341;-48
2023/08/14 06:32:37;;;;;;;4.10;2.40;;;;;;;23.48;100.00;101386.23;105990;1251;60408;-49
2023/08/14 06:35:04;;;;;;;2.00;1.60;;;;;;;23.49;100.00;101395.49;105979;1256;73677;-48
2023/08/14 06:37:31;;;;;;;3.90;2.10;;;;;;;23.54;100.00;101404.92;105984;1257;65149;-49
2023/08/14 06:39:58;;;;;;;12.10;2.20;;;;;;;23.64;100.00;101413.63;105956;1251;72398;-49
2023/08/14 06:42:25;;;;;;;11.20;2.60;;;;;;;23.80;100.00;101410.83;105941;1257;60458;-49
2023/08/14 06:44:53;;;;;;;4.90;2.30;;;;;;;23.97;100.00;101409.65;105898;1253;60429;-48
2023/08/14 06:47:19;;;;;;;4.50;2.20;;;;;;;24.11;100.00;101410.41;105874;1256;73710;-50
2023/08/14 06:49:46;;;;;;;24.20;3.70;;;;;;;24.20;100.00;101404.92;106048;1251;65021;-49
2023/08/14 06:52:13;;;;;;;30.20;3.60;;;;;;;24.27;100.00;101415.41;105932;1254;71729;-50
2023/08/14 06:54:40;;;;;;;5.50;2.40;;;;;;;24.34;100.00;101415.67;105972;1256;60357;-49
2023/08/14 06:57:08;;;;;;;36.80;4.10;;;;;;;24.43;100.00;101423.15;105997;1254;60458;-50
2023/08/14 06:59:35;;;;;;;12.20;2.60;;;;;;;24.49;100.00;101410.77;106027;1255;73837;-50
2023/08/14 07:02:02;;;;;;;11.70;3.10;;;;;;;24.57;100.00;101421.52;106001;1255;64562;-49
2023/08/14 07:04:30;;;;;;;9.80;2.50;;;;;;;24.62;100.00;101423.14;105962;1253;71441;-48
2023/08/14 07:06:57;;;;;;;21.80;3.40;;;;;;;24.64;93.20;101414.22;105955;1256;60307;-48
2023/08/14 07:09:23;;;;;;;10.20;2.80;;;;;;;24.68;90.79;101431.23;106029;1251;60405;-48
2023/08/14 07:11:51;;;;;;;15.50;2.80;;;;;;;24.76;91.72;101445.08;105948;1251;73838;-49
2023/08/14 07:14:18;;;;;;;15.90;3.60;;;;;;;24.84;89.51;101438.06;106048;1256;64576;-47
2023/08/14 07:16:45;;;;;;;7.70;2.40;;;;;;;24.92;85.01;101429.06;105940;1251;72513;-48
2023/08/14 07:19:12;;;;;;;8.70;2.70;;;;;;;25.01;89.32;101459.04;105994;1256;60425;-48
2023/08/14 07:21:40;;;;;;;5.70;2.40;;;;;;;25.13;84.34;101433.02;106005;1251;60560;-48
2023/08/14 07:24:06;;;;;;;3.70;3.00;;;;;;;25.18;78.81;101404.97;106012;1257;73616;-49
2023/08/14 07:26:33;;;;;;;8.70;2.80;;;;;;;25.22;78.88;101440.90;105968;1255;64697;-48
2023/08/14 07:29:01;;;;;;;17.40;3.40;;;;;;;25.35;79.21;101450.00;105970;1251;72627;-49
2023/08/14 07:31:28;;;;;;;11.50;3.50;;;;;;;25.43;78.15;101441.67;105949;1251;60415;-49
2023/08/14 07:33:55;;;;;;;20.80;3.60;;;;;;;25.50;74.22;101406.96;105975;1251;60440;-48
2023/08/14 07:36:22;;;;;;;12.80;3.70;;;;;;;25.68;78.58;101487.29;105985;1255;73788;-48
2023/08/14 07:38:48;;;;;;;19.90;3.30;;;;;;;25.86;81.19;101489.23;105894;1256;64598;-48
2023/08/14 07:41:15;;;;;;;3.80;2.40;;;;;;;26.02;75.15;101405.94;105883;1251;72651;-49
2023/08/14 07:43:42;;;;;;;4.30;2.70;;;;;;;26.08;72.22;101392.79;105952;1256;60352;-51
2023/08/14 07:46:09;;;;;;;11.70;3.10;;;;;;;26.14;72.75;101430.10;105988;1251;60533;-50
2023/08/14 07:48:36;;;;;;;6.80;3.00;;;;;;;26.16;70.74;101403.11;105981;1254;73802;-48
2023/08/14 07:51:03;;;;;;;15.00;3.10;;;;;;;26.25;73.51;101470.93;105739;1255;64742;-51
2023/08/14 07:53:31;;;;;;;13.80;3.30;;;;;;;26.45;72.21;101431.84;105959;1251;72589;-49
2023/08/14 07:55:58;;;;;;;10.30;3.00;;;;;;;26.66;69.31;101384.89;105984;1257;60424;-50
2023/08/14 07:58:25;;;;;;;11.20;2.80;;;;;;;26.80;67.06;101348.14;105928;1251;60434;-50
2023/08/14 08:00:52;;;;;;;3.90;2.90;;;;;;;26.97;65.91;101343.92;105989;1257;73819;-51
2023/08/14 08:03:19;;;;;;;17.70;3.40;;;;;;;27.20;65.08;101333.17;105955;1255;64673;-50
2023/08/14 08:05:46;;;;;;;9.60;2.70;;;;;;;27.43;65.71;101368.84;105960;1251;72606;-50
2023/08/14 08:08:13;;;;;;;4.20;2.70;;;;;;;27.51;60.54;101181.09;105925;1257;60404;-49
2023/08/14 08:10:40;;;;;;;10.40;2.90;;;;;;;27.45;59.28;101171.26;105999;1251;60437;-51
2023/08/14 08:13:08;;;;;;;16.00;3.00;;;;;;;27.39;60.38;101259.12;105849;1257;73831;-50
2023/08/14 08:15:34;;;;;;;25.90;4.30;;;;;;;27.41;58.95;101210.55;105967;1257;64450;-50
2023/08/14 08:18:01;;;;;;;4.80;2.90;;;;;;;27.57;59.23;101243.89;105940;1254;73111;-51
2023/08/14 08:20:30;;;;;;;4.20;2.60;;;;;;;27.63;56.00;101068.89;105938;1255;60316;-50
2023/08/14 08:22:56;;;;;;;10.20;3.40;;;;;;;27.51;56.01;101113.06;105976;1251;60476;-49
2023/08/14 08:25:24;;;;;;;14.10;3.80;;;;;;;27.51;56.72;101190.14;105963;1256;73613;-50
2023/08/14 08:27:51;;;;;;;29.40;4.90;;;;;;;27.62;55.99;101142.68;105962;1256;64542;-50
2023/08/14 08:30:18;;;;;;;43.90;4.90;;;;;;;27.78;56.91;101219.62;105968;1251;72841;-50
2023/08/14 08:32:45;;;;;;;67.50;7.30;;;;;;;27.96;57.44;101253.32;105983;1257;60761;-49
2023/08/14 08:35:12;;;;;;;103.00;9.90;;;;;;;28.12;56.44;101197.24;105996;1251;60526;-50
2023/08/14 08:37:41;;;;;;;25.10;3.60;;;;;;;28.21;56.69;101217.08;105994;1251;73922;-50
2023/08/14 08:40:09;;;;;;;11.50;2.90;;;;;;;28.37;58.00;101310.02;105979;1256;64439;-51
2023/08/14 08:42:36;;;;;;;20.20;3.60;;;;;;;28.65;56.80;101223.83;105964;1251;71287;-51
2023/08/14 08:45:04;;;;;;;27.60;3.60;;;;;;;28.87;56.05;101176.52;105964;1256;60443;-51
2023/08/14 08:47:36;;;;;;;4.80;2.60;;;;;;;28.97;55.19;101127.42;106024;1257;60536;-49
2023/08/14 08:50:03;;;;;;;6.10;2.70;;;;;;;28.93;53.75;101045.17;105966;1257;73766;-51
2023/08/14 08:52:34;;;;;;;9.60;3.00;;;;;;;28.93;52.95;101005.40;105978;1251;64639;-50
2023/08/14 08:55:02;;;;;;;11.10;2.70;;;;;;;28.86;53.22;101045.19;105913;1254;72644;-49
2023/08/14 08:57:29;;;;;;;18.10;3.20;;;;;;;28.95;53.86;101105.93;105997;1256;60351;-49
2023/08/14 08:59:57;;;;;;;21.90;4.00;;;;;;;29.07;50.17;100794.02;105975;1251;60402;-51
2023/08/14 09:02:25;;;;;;;3.40;2.50;;;;;;;29.04;49.78;100757.36;105967;1251;73832;-51
2023/08/14 09:04:52;;;;;;;3.30;2.30;;;;;;;29.18;50.68;100880.48;105927;1255;64356;-50
2023/08/14 09:07:19;;;;;;;6.90;2.70;;;;;;;29.30;52.26;101044.58;105963;1251;72658;-50
2023/08/14 09:09:46;;;;;;;6.50;2.70;;;;;;;29.53;53.10;101125.27;105947;1256;60497;-52
2023/08/14 09:12:13;;;;;;;6.20;2.90;;;;;;;29.67;52.45;101065.84;105972;1251;60431;-51
2023/08/14 09:14:43;;;;;;;8.20;3.10;;;;;;;29.77;51.21;100946.92;106029;1251;73796;-52
2023/08/14 09:17:11;;;;;;;8.10;2.90;;;;;;;29.89;51.37;100975.09;105971;1251;63172;-52
2023/08/14 09:19:39;;;;;;;6.00;3.00;;;;;;;29.98;49.41;100791.61;105970;1251;72383;-51
2023/08/14 09:22:07;;;;;;;5.70;2.70;;;;;;;29.93;49.21;100788.04;105963;1256;60527;-51
2023/08/14 09:24:34;;;;;;;4.80;2.70;;;;;;;29.89;49.90;100874.50;105845;1257;60466;-50
2023/08/14 09:27:02;;;;;;;8.90;2.70;;;;;;;29.95;50.59;100969.40;105671;1252;350717;-53
2023/08/14 09:31:04;;;;;;;;;;;;;;;30.03;47.53;100646.95;102462;1292;600723;-50
2023/08/14 09:33:31;;;;;;;12.80;2.60;;;;;;;29.80;47.91;100687.35;104936;1266;60382;-52
2023/08/14 09:35:58;;;;;;;5.00;2.70;;;;;;;29.80;50.39;100981.15;105109;1269;59321;-53
2023/08/14 09:38:25;;;;;;;6.70;2.30;;;;;;;30.05;48.64;100839.91;104837;1267;72720;-50
2023/08/14 09:40:59;;;;;;;8.30;3.00;;;;;;;30.05;47.91;100711.45;105073;1269;64630;-50
2023/08/14 09:43:26;;;;;;;8.20;3.00;;;;;;;30.03;47.69;100703.68;104894;1269;229236;-50
2023/08/14 09:45:54;;;;;;;7.40;3.00;;;;;;;30.05;46.83;100626.50;105228;1263;60290;-49
2023/08/14 09:48:21;;;;;;;6.80;2.70;;;;;;;29.98;47.73;100731.66;105259;1267;59252;-52
2023/08/14 09:50:52;;;;;;;3.60;2.50;;;;;;;30.00;49.11;100906.88;105215;1263;72129;-51
2023/08/14 09:53:18;;;;;;;3.10;2.80;;;;;;;30.15;49.34;100945.91;105212;1264;63266;-52
2023/08/14 09:55:45;;;;;;;4.50;2.80;;;;;;;30.19;48.97;100890.56;105233;1263;72817;-49
2023/08/14 09:58:12;;;;;;;8.60;2.50;;;;;;;30.22;47.30;100738.70;105060;1269;60218;-49
2023/08/14 10:00:39;;;;;;;8.60;2.60;;;;;;;30.24;48.86;100890.66;105155;1263;60593;-52
2023/08/14 10:03:07;;;;;;;4.60;2.70;;;;;;;30.31;48.45;100858.41;105131;1264;73016;-56
2023/08/14 10:05:37;;;;;;;4.60;2.90;;;;;;;30.28;47.38;100737.77;105232;1269;64740;-53
2023/08/14 10:08:05;;;;;;;10.50;2.90;;;;;;;30.12;46.11;100601.61;105171;1264;72639;-50
2023/08/14 10:10:32;;;;;;;6.50;3.10;;;;;;;30.01;48.24;100843.53;105169;1269;60311;-52
2023/08/14 10:13:04;;;;;;;3.60;3.10;;;;;;;30.15;49.90;101048.20;105208;1268;60435;-51
2023/08/14 10:15:41;;;;;;;17.70;3.10;;;;;;;30.26;47.97;100837.04;105178;1267;71901;-55
2023/08/14 10:18:16;;;;;;;6.90;2.80;;;;;;;30.28;46.24;100646.11;105029;1269;64616;-53
2023/08/14 10:20:44;;;;;;;8.60;2.70;;;;;;;30.29;47.30;100750.45;104951;1268;72711;-55
2023/08/14 10:23:15;;;;;;;11.60;3.20;;;;;;;30.26;46.76;100733.15;105179;1263;60523;-54
2023/08/14 10:25:47;;;;;;;9.80;2.50;;;;;;;30.21;45.38;100558.50;104899;1263;60051;-49
2023/08/14 10:28:13;;;;;;;75.20;5.10;;;;;;;30.17;45.36;100576.38;105143;1267;72333;-49
2023/08/14 10:30:40;;;;;;;11.20;3.80;;;;;;;30.02;45.38;100558.77;104901;1270;64697;-50
2023/08/14 10:33:07;;;;;;;89.40;7.70;;;;;;;29.89;44.90;100526.88;105266;1264;72642;-52
2023/08/14 10:35:54;;;;;;;11.00;3.50;;;;;;;29.94;47.26;100783.47;105205;1269;60400;-51
2023/08/14 10:38:41;;;;;;;24.00;3.10;;;;;;;30.10;44.89;100558.04;105184;1264;60349;-50
2023/08/14 10:41:08;;;;;;;90.40;5.40;;;;;;;30.08;45.51;100610.85;105141;1268;73012;-52
2023/08/14 10:43:36;;;;;;;9.00;2.50;;;;;;;30.11;46.04;100705.04;105156;1269;64385;-51
2023/08/14 10:46:10;;;;;;;14.80;2.90;;;;;;;30.24;45.78;100658.76;105180;1269;72625;-51
2023/08/14 10:48:37;;;;;;;6.90;2.70;;;;;;;30.29;45.69;100628.89;105189;1269;60360;-49
2023/08/14 10:51:12;;;;;;;3.40;2.50;;;;;;;30.43;45.29;100593.20;105171;1264;60345;-51
2023/08/14 10:53:40;;;;;;;7.30;2.20;;;;;;;30.50;45.53;100621.15;105173;1265;73027;-50
2023/08/14 10:56:07;;;;;;;8.50;2.40;;;;;;;30.64;44.17;100469.36;105153;1268;64677;-51
2023/08/14 10:58:38;;;;;;;10.20;2.70;;;;;;;30.51;43.83;100418.66;105165;1267;72683;-51
2023/08/14 11:01:06;;;;;;;13.20;2.70;;;;;;;30.47;45.86;100659.56;105144;1268;60351;-51
2023/08/14 11:03:52;;;;;;;8.10;2.60;;;;;;;30.52;44.11;100481.89;105140;1267;60870;-50
2023/08/14 11:06:27;;;;;;;11.30;2.70;;;;;;;30.39;45.59;100645.32;105190;1267;73043;-49
2023/08/14 11:09:04;;;;;;;7.40;2.80;;;;;;;30.36;44.57;100554.84;105011;1267;64489;-48
2023/08/14 11:11:31;;;;;;;6.60;2.80;;;;;;;30.34;46.40;100706.73;105143;1264;72680;-53
2023/08/14 11:13:58;;;;;;;9.90;2.90;;;;;;;30.34;46.44;100766.56;105127;1266;60341;-51
2023/08/14 11:16:25;;;;;;;32.70;4.00;;;;;;;30.44;45.83;100717.80;105164;1266;60189;-51